Havana, Cuba
Current Conditions -  °F | °C
As of 11:55 PM on Thursday 18 Dec 2014 (Local Time) from MUHA Reporting Station
Clear Clear  
Wind Chill: 63°   Ceiling: Unl
Heat Index: 63°   Visibility: 6mi
Dew Point: 57°   Wind: 5mph
Humidity: 82%   Direction: 70°ENE
Pressure: 30.09"   Gusts: NA
Location:  23.12°N, 82.39°W
Report Text: MUHA 190355Z 07004KT CAVOK 17/14 Q1019
Loading
Personal Weather Stations






























Interactive Weather Map New forecast layout! Learn more

10-Day Weather Forecast

Advertisements
Track Severe Weather on mobile